sensor_id;sensor_type;location;lat;lon;timestamp;P1;durP1;ratioP1;P2;durP2;ratioP2
5587;SDS011;2816;49.778;9.986;2023-11-21T00:01:21;9.27;;;2.13;;
5587;SDS011;2816;49.778;9.986;2023-11-21T00:03:48;5.43;;;2.50;;
5587;SDS011;2816;49.778;9.986;2023-11-21T00:06:15;3.97;;;2.40;;
5587;SDS011;2816;49.778;9.986;2023-11-21T00:08:42;4.90;;;2.70;;
5587;SDS011;2816;49.778;9.986;2023-11-21T00:11:09;4.23;;;2.40;;
5587;SDS011;2816;49.778;9.986;2023-11-21T00:13:37;4.80;;;2.40;;
5587;SDS011;2816;49.778;9.986;2023-11-21T00:16:04;3.20;;;2.00;;
5587;SDS011;2816;49.778;9.986;2023-11-21T00:18:32;4.20;;;2.03;;
5587;SDS011;2816;49.778;9.986;2023-11-21T00:20:59;5.13;;;2.50;;
5587;SDS011;2816;49.778;9.986;2023-11-21T00:23:26;5.20;;;2.50;;
5587;SDS011;2816;49.778;9.986;2023-11-21T00:25:53;7.50;;;2.30;;
5587;SDS011;2816;49.778;9.986;2023-11-21T00:28:20;5.50;;;2.60;;
5587;SDS011;2816;49.778;9.986;2023-11-21T00:30:48;4.67;;;2.40;;
5587;SDS011;2816;49.778;9.986;2023-11-21T00:33:15;4.37;;;2.20;;
5587;SDS011;2816;49.778;9.986;2023-11-21T00:35:42;3.97;;;2.60;;
5587;SDS011;2816;49.778;9.986;2023-11-21T00:38:09;3.60;;;2.20;;
5587;SDS011;2816;49.778;9.986;2023-11-21T00:40:36;2.93;;;2.00;;
5587;SDS011;2816;49.778;9.986;2023-11-21T00:43:03;8.73;;;2.77;;
5587;SDS011;2816;49.778;9.986;2023-11-21T00:45:30;3.40;;;1.70;;
5587;SDS011;2816;49.778;9.986;2023-11-21T00:47:58;5.83;;;2.37;;
5587;SDS011;2816;49.778;9.986;2023-11-21T00:50:25;5.30;;;2.47;;
5587;SDS011;2816;49.778;9.986;2023-11-21T00:52:52;4.77;;;2.30;;
5587;SDS011;2816;49.778;9.986;2023-11-21T00:55:19;3.00;;;2.10;;
5587;SDS011;2816;49.778;9.986;2023-11-21T00:57:46;4.20;;;2.20;;
5587;SDS011;2816;49.778;9.986;2023-11-21T01:00:13;7.30;;;2.80;;
5587;SDS011;2816;49.778;9.986;2023-11-21T01:02:42;5.17;;;2.77;;
5587;SDS011;2816;49.778;9.986;2023-11-21T01:05:11;5.20;;;2.53;;
5587;SDS011;2816;49.778;9.986;2023-11-21T01:07:38;7.07;;;2.50;;
5587;SDS011;2816;49.778;9.986;2023-11-21T01:10:05;4.13;;;2.20;;
5587;SDS011;2816;49.778;9.986;2023-11-21T01:12:33;8.83;;;2.23;;
5587;SDS011;2816;49.778;9.986;2023-11-21T01:15:01;2.30;;;2.10;;
5587;SDS011;2816;49.778;9.986;2023-11-21T01:17:28;3.80;;;1.90;;
5587;SDS011;2816;49.778;9.986;2023-11-21T01:19:55;3.80;;;2.17;;
5587;SDS011;2816;49.778;9.986;2023-11-21T01:22:24;3.73;;;2.33;;
5587;SDS011;2816;49.778;9.986;2023-11-21T01:24:51;5.93;;;2.10;;
5587;SDS011;2816;49.778;9.986;2023-11-21T01:27:18;5.73;;;2.50;;
5587;SDS011;2816;49.778;9.986;2023-11-21T01:29:44;3.60;;;2.07;;
5587;SDS011;2816;49.778;9.986;2023-11-21T01:32:11;4.10;;;2.20;;
5587;SDS011;2816;49.778;9.986;2023-11-21T01:34:38;3.43;;;2.07;;
5587;SDS011;2816;49.778;9.986;2023-11-21T01:37:05;3.63;;;2.13;;
5587;SDS011;2816;49.778;9.986;2023-11-21T01:39:33;4.07;;;2.47;;
5587;SDS011;2816;49.778;9.986;2023-11-21T01:42:00;3.50;;;2.23;;
5587;SDS011;2816;49.778;9.986;2023-11-21T01:44:27;4.87;;;2.43;;
5587;SDS011;2816;49.778;9.986;2023-11-21T01:46:54;2.57;;;2.03;;
5587;SDS011;2816;49.778;9.986;2023-11-21T01:49:22;3.23;;;2.10;;
5587;SDS011;2816;49.778;9.986;2023-11-21T01:51:49;5.93;;;2.57;;
5587;SDS011;2816;49.778;9.986;2023-11-21T01:54:17;8.33;;;2.23;;
5587;SDS011;2816;49.778;9.986;2023-11-21T01:56:48;6.33;;;2.70;;
5587;SDS011;2816;49.778;9.986;2023-11-21T01:59:16;6.33;;;2.50;;
5587;SDS011;2816;49.778;9.986;2023-11-21T02:01:46;3.57;;;2.23;;
5587;SDS011;2816;49.778;9.986;2023-11-21T02:04:13;5.63;;;2.17;;
5587;SDS011;2816;49.778;9.986;2023-11-21T02:06:40;5.37;;;2.40;;
5587;SDS011;2816;49.778;9.986;2023-11-21T02:09:08;5.80;;;2.37;;
5587;SDS011;2816;49.778;9.986;2023-11-21T02:11:35;3.73;;;2.30;;
5587;SDS011;2816;49.778;9.986;2023-11-21T02:14:05;4.60;;;2.00;;
5587;SDS011;2816;49.778;9.986;2023-11-21T02:16:34;3.70;;;2.00;;
5587;SDS011;2816;49.778;9.986;2023-11-21T02:19:01;3.20;;;2.00;;
5587;SDS011;2816;49.778;9.986;2023-11-21T02:21:31;4.33;;;2.10;;
5587;SDS011;2816;49.778;9.986;2023-11-21T02:24:00;5.60;;;2.33;;
5587;SDS011;2816;49.778;9.986;2023-11-21T02:26:27;5.23;;;2.00;;
5587;SDS011;2816;49.778;9.986;2023-11-21T02:28:54;8.00;;;3.80;;
5587;SDS011;2816;49.778;9.986;2023-11-21T02:31:23;4.87;;;2.33;;
5587;SDS011;2816;49.778;9.986;2023-11-21T02:33:50;5.27;;;2.17;;
5587;SDS011;2816;49.778;9.986;2023-11-21T02:36:18;3.53;;;2.40;;
5587;SDS011;2816;49.778;9.986;2023-11-21T02:38:47;4.63;;;2.10;;
5587;SDS011;2816;49.778;9.986;2023-11-21T02:41:15;6.80;;;2.60;;
5587;SDS011;2816;49.778;9.986;2023-11-21T02:43:42;5.57;;;2.20;;
5587;SDS011;2816;49.778;9.986;2023-11-21T02:46:09;4.43;;;2.50;;
5587;SDS011;2816;49.778;9.986;2023-11-21T02:48:36;6.93;;;2.20;;
5587;SDS011;2816;49.778;9.986;2023-11-21T02:51:03;9.73;;;2.43;;
5587;SDS011;2816;49.778;9.986;2023-11-21T02:53:30;2.77;;;1.93;;
5587;SDS011;2816;49.778;9.986;2023-11-21T02:55:57;10.70;;;2.67;;
5587;SDS011;2816;49.778;9.986;2023-11-21T02:58:25;3.53;;;2.13;;
5587;SDS011;2816;49.778;9.986;2023-11-21T03:00:52;5.30;;;2.17;;
5587;SDS011;2816;49.778;9.986;2023-11-21T03:03:19;4.70;;;2.10;;
5587;SDS011;2816;49.778;9.986;2023-11-21T03:05:46;4.97;;;2.30;;
5587;SDS011;2816;49.778;9.986;2023-11-21T03:08:14;5.07;;;2.30;;
5587;SDS011;2816;49.778;9.986;2023-11-21T03:10:41;4.40;;;2.13;;
5587;SDS011;2816;49.778;9.986;2023-11-21T03:13:08;2.63;;;1.90;;
5587;SDS011;2816;49.778;9.986;2023-11-21T03:15:37;2.97;;;2.03;;
5587;SDS011;2816;49.778;9.986;2023-11-21T03:18:04;5.70;;;2.60;;
5587;SDS011;2816;49.778;9.986;2023-11-21T03:20:31;4.47;;;2.13;;
5587;SDS011;2816;49.778;9.986;2023-11-21T03:22:58;8.60;;;3.10;;
5587;SDS011;2816;49.778;9.986;2023-11-21T03:25:25;7.20;;;2.47;;
5587;SDS011;2816;49.778;9.986;2023-11-21T03:27:53;7.60;;;2.30;;
5587;SDS011;2816;49.778;9.986;2023-11-21T03:30:20;7.53;;;2.80;;
5587;SDS011;2816;49.778;9.986;2023-11-21T03:32:49;5.10;;;2.40;;
5587;SDS011;2816;49.778;9.986;2023-11-21T03:35:16;5.07;;;2.40;;
5587;SDS011;2816;49.778;9.986;2023-11-21T03:37:46;6.93;;;2.47;;
5587;SDS011;2816;49.778;9.986;2023-11-21T03:40:13;4.67;;;1.93;;
5587;SDS011;2816;49.778;9.986;2023-11-21T03:42:41;9.10;;;2.27;;
5587;SDS011;2816;49.778;9.986;2023-11-21T03:45:08;6.70;;;2.50;;
5587;SDS011;2816;49.778;9.986;2023-11-21T03:47:37;6.23;;;2.97;;
5587;SDS011;2816;49.778;9.986;2023-11-21T03:50:07;7.70;;;2.53;;
5587;SDS011;2816;49.778;9.986;2023-11-21T03:52:35;4.27;;;2.23;;
5587;SDS011;2816;49.778;9.986;2023-11-21T03:55:01;6.20;;;2.80;;
5587;SDS011;2816;49.778;9.986;2023-11-21T03:57:29;5.33;;;2.40;;
5587;SDS011;2816;49.778;9.986;2023-11-21T03:59:56;3.70;;;2.37;;
5587;SDS011;2816;49.778;9.986;2023-11-21T04:02:23;3.37;;;2.47;;
5587;SDS011;2816;49.778;9.986;2023-11-21T04:04:51;5.60;;;2.63;;
5587;SDS011;2816;49.778;9.986;2023-11-21T04:07:19;6.87;;;3.07;;
5587;SDS011;2816;49.778;9.986;2023-11-21T04:09:47;9.43;;;2.97;;
5587;SDS011;2816;49.778;9.986;2023-11-21T04:12:14;6.60;;;2.13;;
5587;SDS011;2816;49.778;9.986;2023-11-21T04:14:40;4.93;;;2.80;;
5587;SDS011;2816;49.778;9.986;2023-11-21T04:17:07;6.47;;;2.50;;
5587;SDS011;2816;49.778;9.986;2023-11-21T04:19:34;6.83;;;2.50;;
5587;SDS011;2816;49.778;9.986;2023-11-21T04:22:01;5.90;;;2.67;;
5587;SDS011;2816;49.778;9.986;2023-11-21T04:24:30;8.43;;;2.50;;
5587;SDS011;2816;49.778;9.986;2023-11-21T04:26:57;7.70;;;2.70;;
5587;SDS011;2816;49.778;9.986;2023-11-21T04:29:24;2.87;;;2.30;;
5587;SDS011;2816;49.778;9.986;2023-11-21T04:31:51;4.87;;;2.50;;
5587;SDS011;2816;49.778;9.986;2023-11-21T04:34:18;4.10;;;2.50;;
5587;SDS011;2816;49.778;9.986;2023-11-21T04:36:45;4.70;;;2.67;;
5587;SDS011;2816;49.778;9.986;2023-11-21T04:39:12;4.37;;;2.57;;
5587;SDS011;2816;49.778;9.986;2023-11-21T04:41:41;5.30;;;2.70;;
5587;SDS011;2816;49.778;9.986;2023-11-21T04:44:08;7.60;;;2.53;;
5587;SDS011;2816;49.778;9.986;2023-11-21T04:46:35;5.10;;;2.20;;
5587;SDS011;2816;49.778;9.986;2023-11-21T04:49:02;4.93;;;2.20;;
5587;SDS011;2816;49.778;9.986;2023-11-21T04:51:29;9.63;;;2.73;;
5587;SDS011;2816;49.778;9.986;2023-11-21T04:53:57;3.53;;;2.47;;
5587;SDS011;2816;49.778;9.986;2023-11-21T04:56:24;5.80;;;2.77;;
5587;SDS011;2816;49.778;9.986;2023-11-21T04:58:52;6.40;;;3.10;;
5587;SDS011;2816;49.778;9.986;2023-11-21T05:01:20;6.10;;;2.77;;
5587;SDS011;2816;49.778;9.986;2023-11-21T05:03:47;5.73;;;3.20;;
5587;SDS011;2816;49.778;9.986;2023-11-21T05:06:14;3.93;;;2.37;;
5587;SDS011;2816;49.778;9.986;2023-11-21T05:08:41;5.40;;;2.67;;
5587;SDS011;2816;49.778;9.986;2023-11-21T05:11:08;4.17;;;2.57;;
5587;SDS011;2816;49.778;9.986;2023-11-21T05:13:35;5.30;;;2.83;;
5587;SDS011;2816;49.778;9.986;2023-11-21T05:16:05;4.90;;;2.97;;
5587;SDS011;2816;49.778;9.986;2023-11-21T05:18:33;5.07;;;2.53;;
5587;SDS011;2816;49.778;9.986;2023-11-21T05:21:00;7.73;;;2.83;;
5587;SDS011;2816;49.778;9.986;2023-11-21T05:23:27;5.90;;;2.73;;
5587;SDS011;2816;49.778;9.986;2023-11-21T05:25:54;7.63;;;2.90;;
5587;SDS011;2816;49.778;9.986;2023-11-21T05:28:22;7.43;;;2.97;;
5587;SDS011;2816;49.778;9.986;2023-11-21T05:30:49;7.20;;;3.07;;
5587;SDS011;2816;49.778;9.986;2023-11-21T05:33:17;11.17;;;3.43;;
5587;SDS011;2816;49.778;9.986;2023-11-21T05:35:44;7.90;;;2.53;;
5587;SDS011;2816;49.778;9.986;2023-11-21T05:38:10;5.63;;;2.90;;
5587;SDS011;2816;49.778;9.986;2023-11-21T05:40:38;6.50;;;3.30;;
5587;SDS011;2816;49.778;9.986;2023-11-21T05:43:06;3.87;;;2.87;;
5587;SDS011;2816;49.778;9.986;2023-11-21T05:45:33;4.13;;;2.83;;
5587;SDS011;2816;49.778;9.986;2023-11-21T05:48:00;4.77;;;2.90;;
5587;SDS011;2816;49.778;9.986;2023-11-21T05:50:29;5.80;;;3.47;;
5587;SDS011;2816;49.778;9.986;2023-11-21T05:52:56;6.00;;;3.27;;
5587;SDS011;2816;49.778;9.986;2023-11-21T05:55:25;3.50;;;2.93;;
5587;SDS011;2816;49.778;9.986;2023-11-21T05:57:52;6.07;;;3.30;;
5587;SDS011;2816;49.778;9.986;2023-11-21T06:00:19;5.60;;;3.90;;
5587;SDS011;2816;49.778;9.986;2023-11-21T06:02:47;7.33;;;3.60;;
5587;SDS011;2816;49.778;9.986;2023-11-21T06:05:15;6.50;;;3.53;;
5587;SDS011;2816;49.778;9.986;2023-11-21T06:07:45;5.90;;;3.80;;
5587;SDS011;2816;49.778;9.986;2023-11-21T06:10:12;7.60;;;4.13;;
5587;SDS011;2816;49.778;9.986;2023-11-21T06:12:39;7.57;;;4.60;;
5587;SDS011;2816;49.778;9.986;2023-11-21T06:15:08;22.90;;;10.30;;
5587;SDS011;2816;49.778;9.986;2023-11-21T06:17:38;20.17;;;8.10;;
5587;SDS011;2816;49.778;9.986;2023-11-21T06:20:06;18.27;;;8.67;;
5587;SDS011;2816;49.778;9.986;2023-11-21T06:22:35;13.43;;;8.40;;
5587;SDS011;2816;49.778;9.986;2023-11-21T06:25:04;10.67;;;7.00;;
5587;SDS011;2816;49.778;9.986;2023-11-21T06:27:32;13.63;;;8.07;;
5587;SDS011;2816;49.778;9.986;2023-11-21T06:30:03;11.13;;;6.80;;
5587;SDS011;2816;49.778;9.986;2023-11-21T06:32:31;13.10;;;8.17;;
5587;SDS011;2816;49.778;9.986;2023-11-21T06:34:59;17.43;;;8.00;;
5587;SDS011;2816;49.778;9.986;2023-11-21T06:37:26;17.40;;;8.27;;
5587;SDS011;2816;49.778;9.986;2023-11-21T06:39:53;13.13;;;6.90;;
5587;SDS011;2816;49.778;9.986;2023-11-21T06:42:23;11.93;;;7.17;;
5587;SDS011;2816;49.778;9.986;2023-11-21T06:44:50;9.70;;;6.30;;
5587;SDS011;2816;49.778;9.986;2023-11-21T06:47:18;13.37;;;6.50;;
5587;SDS011;2816;49.778;9.986;2023-11-21T06:49:46;10.07;;;6.40;;
5587;SDS011;2816;49.778;9.986;2023-11-21T06:52:14;7.43;;;4.70;;
5587;SDS011;2816;49.778;9.986;2023-11-21T06:54:41;11.83;;;4.50;;
5587;SDS011;2816;49.778;9.986;2023-11-21T06:57:08;10.93;;;4.80;;
5587;SDS011;2816;49.778;9.986;2023-11-21T06:59:36;7.27;;;4.13;;
5587;SDS011;2816;49.778;9.986;2023-11-21T07:02:04;8.03;;;3.90;;
5587;SDS011;2816;49.778;9.986;2023-11-21T07:04:31;7.70;;;3.90;;
5587;SDS011;2816;49.778;9.986;2023-11-21T07:06:58;7.33;;;4.57;;
5587;SDS011;2816;49.778;9.986;2023-11-21T07:09:25;9.17;;;4.67;;
5587;SDS011;2816;49.778;9.986;2023-11-21T07:11:52;8.43;;;4.83;;
5587;SDS011;2816;49.778;9.986;2023-11-21T07:14:20;6.90;;;4.50;;
5587;SDS011;2816;49.778;9.986;2023-11-21T07:16:48;8.17;;;5.07;;
5587;SDS011;2816;49.778;9.986;2023-11-21T07:19:16;9.63;;;5.93;;
5587;SDS011;2816;49.778;9.986;2023-11-21T07:21:44;11.83;;;5.90;;
5587;SDS011;2816;49.778;9.986;2023-11-21T07:24:12;9.73;;;5.50;;
5587;SDS011;2816;49.778;9.986;2023-11-21T07:26:38;12.30;;;5.93;;
5587;SDS011;2816;49.778;9.986;2023-11-21T07:29:06;11.73;;;6.13;;
5587;SDS011;2816;49.778;9.986;2023-11-21T07:31:33;10.40;;;6.40;;
5587;SDS011;2816;49.778;9.986;2023-11-21T07:34:01;9.63;;;5.53;;
5587;SDS011;2816;49.778;9.986;2023-11-21T07:36:28;13.10;;;7.47;;
5587;SDS011;2816;49.778;9.986;2023-11-21T07:38:55;11.33;;;6.80;;
5587;SDS011;2816;49.778;9.986;2023-11-21T07:41:22;13.67;;;6.87;;
5587;SDS011;2816;49.778;9.986;2023-11-21T07:43:49;13.07;;;7.70;;
5587;SDS011;2816;49.778;9.986;2023-11-21T07:46:16;17.50;;;7.93;;
5587;SDS011;2816;49.778;9.986;2023-11-21T07:48:43;10.53;;;7.33;;
5587;SDS011;2816;49.778;9.986;2023-11-21T07:51:12;13.40;;;7.73;;
5587;SDS011;2816;49.778;9.986;2023-11-21T07:53:39;11.50;;;7.17;;
5587;SDS011;2816;49.778;9.986;2023-11-21T07:56:08;15.40;;;8.17;;
5587;SDS011;2816;49.778;9.986;2023-11-21T07:58:36;14.17;;;9.10;;
5587;SDS011;2816;49.778;9.986;2023-11-21T08:01:03;14.40;;;9.67;;
5587;SDS011;2816;49.778;9.986;2023-11-21T08:03:30;11.73;;;9.07;;
5587;SDS011;2816;49.778;9.986;2023-11-21T08:05:57;17.80;;;9.57;;
5587;SDS011;2816;49.778;9.986;2023-11-21T08:08:26;14.83;;;9.40;;
5587;SDS011;2816;49.778;9.986;2023-11-21T08:10:53;17.07;;;9.80;;
5587;SDS011;2816;49.778;9.986;2023-11-21T08:13:22;18.37;;;9.60;;
5587;SDS011;2816;49.778;9.986;2023-11-21T08:15:49;16.50;;;9.27;;
5587;SDS011;2816;49.778;9.986;2023-11-21T08:18:16;24.23;;;13.30;;
5587;SDS011;2816;49.778;9.986;2023-11-21T08:20:43;17.07;;;10.67;;
5587;SDS011;2816;49.778;9.986;2023-11-21T08:23:13;23.30;;;11.20;;
5587;SDS011;2816;49.778;9.986;2023-11-21T08:25:43;13.27;;;9.50;;
5587;SDS011;2816;49.778;9.986;2023-11-21T08:28:10;15.23;;;8.07;;
5587;SDS011;2816;49.778;9.986;2023-11-21T08:30:37;17.13;;;10.30;;
5587;SDS011;2816;49.778;9.986;2023-11-21T08:33:04;22.63;;;12.93;;
5587;SDS011;2816;49.778;9.986;2023-11-21T08:35:32;23.83;;;12.60;;
5587;SDS011;2816;49.778;9.986;2023-11-21T08:37:58;27.30;;;14.10;;
5587;SDS011;2816;49.778;9.986;2023-11-21T08:40:25;28.43;;;13.00;;
5587;SDS011;2816;49.778;9.986;2023-11-21T08:42:54;23.43;;;12.20;;
5587;SDS011;2816;49.778;9.986;2023-11-21T08:45:21;28.90;;;14.60;;
5587;SDS011;2816;49.778;9.986;2023-11-21T08:47:48;27.87;;;14.90;;
5587;SDS011;2816;49.778;9.986;2023-11-21T08:50:15;25.10;;;14.10;;
5587;SDS011;2816;49.778;9.986;2023-11-21T08:52:42;24.43;;;13.17;;
5587;SDS011;2816;49.778;9.986;2023-11-21T08:55:11;27.23;;;13.10;;
5587;SDS011;2816;49.778;9.986;2023-11-21T08:57:39;21.73;;;13.50;;
5587;SDS011;2816;49.778;9.986;2023-11-21T09:00:08;26.80;;;13.63;;
5587;SDS011;2816;49.778;9.986;2023-11-21T09:02:37;23.47;;;13.50;;
5587;SDS011;2816;49.778;9.986;2023-11-21T09:05:06;22.33;;;12.80;;
5587;SDS011;2816;49.778;9.986;2023-11-21T09:07:34;26.03;;;13.87;;
5587;SDS011;2816;49.778;9.986;2023-11-21T09:10:01;22.83;;;12.87;;
5587;SDS011;2816;49.778;9.986;2023-11-21T09:12:28;23.13;;;13.17;;
5587;SDS011;2816;49.778;9.986;2023-11-21T09:14:57;22.87;;;12.90;;
5587;SDS011;2816;49.778;9.986;2023-11-21T09:17:25;27.90;;;14.07;;
5587;SDS011;2816;49.778;9.986;2023-11-21T09:19:52;25.20;;;13.63;;
5587;SDS011;2816;49.778;9.986;2023-11-21T09:22:19;23.90;;;13.03;;
5587;SDS011;2816;49.778;9.986;2023-11-21T09:24:46;25.20;;;14.13;;
5587;SDS011;2816;49.778;9.986;2023-11-21T09:27:13;23.47;;;13.73;;
5587;SDS011;2816;49.778;9.986;2023-11-21T09:29:40;27.10;;;13.70;;
5587;SDS011;2816;49.778;9.986;2023-11-21T09:32:07;19.80;;;11.90;;
5587;SDS011;2816;49.778;9.986;2023-11-21T09:34:38;19.63;;;11.23;;
5587;SDS011;2816;49.778;9.986;2023-11-21T09:37:06;18.53;;;11.43;;
5587;SDS011;2816;49.778;9.986;2023-11-21T09:39:35;20.53;;;12.63;;
5587;SDS011;2816;49.778;9.986;2023-11-21T09:42:04;14.93;;;10.90;;
5587;SDS011;2816;49.778;9.986;2023-11-21T09:44:40;16.23;;;10.70;;
5587;SDS011;2816;49.778;9.986;2023-11-21T09:47:14;14.50;;;8.27;;
5587;SDS011;2816;49.778;9.986;2023-11-21T09:49:43;13.00;;;8.40;;
5587;SDS011;2816;49.778;9.986;2023-11-21T09:52:16;13.23;;;9.10;;
5587;SDS011;2816;49.778;9.986;2023-11-21T09:54:50;13.17;;;8.30;;
5587;SDS011;2816;49.778;9.986;2023-11-21T09:57:18;14.40;;;10.63;;
5587;SDS011;2816;49.778;9.986;2023-11-21T09:59:46;16.20;;;10.87;;
5587;SDS011;2816;49.778;9.986;2023-11-21T10:02:16;17.97;;;11.07;;
5587;SDS011;2816;49.778;9.986;2023-11-21T10:04:47;15.63;;;11.60;;
5587;SDS011;2816;49.778;9.986;2023-11-21T10:07:15;16.27;;;10.80;;
5587;SDS011;2816;49.778;9.986;2023-11-21T10:09:45;17.00;;;11.63;;
5587;SDS011;2816;49.778;9.986;2023-11-21T10:12:15;20.63;;;10.33;;
5587;SDS011;2816;49.778;9.986;2023-11-21T10:14:42;12.63;;;9.20;;
5587;SDS011;2816;49.778;9.986;2023-11-21T10:17:13;16.83;;;9.20;;
5587;SDS011;2816;49.778;9.986;2023-11-21T10:19:43;14.30;;;8.47;;
5587;SDS011;2816;49.778;9.986;2023-11-21T10:22:14;11.60;;;8.67;;
5587;SDS011;2816;49.778;9.986;2023-11-21T10:24:42;11.80;;;8.20;;
5587;SDS011;2816;49.778;9.986;2023-11-21T10:27:09;14.70;;;7.47;;
5587;SDS011;2816;49.778;9.986;2023-11-21T10:29:36;12.37;;;8.30;;
5587;SDS011;2816;49.778;9.986;2023-11-21T10:32:04;12.73;;;8.60;;
5587;SDS011;2816;49.778;9.986;2023-11-21T10:34:31;11.17;;;7.47;;
5587;SDS011;2816;49.778;9.986;2023-11-21T10:37:01;12.30;;;8.27;;
5587;SDS011;2816;49.778;9.986;2023-11-21T10:39:36;11.83;;;8.30;;
5587;SDS011;2816;49.778;9.986;2023-11-21T10:42:07;11.90;;;7.10;;
5587;SDS011;2816;49.778;9.986;2023-11-21T10:44:35;11.27;;;7.07;;
5587;SDS011;2816;49.778;9.986;2023-11-21T10:47:02;13.33;;;7.40;;
5587;SDS011;2816;49.778;9.986;2023-11-21T10:49:30;17.63;;;9.20;;
5587;SDS011;2816;49.778;9.986;2023-11-21T10:51:57;14.53;;;8.50;;
5587;SDS011;2816;49.778;9.986;2023-11-21T10:54:25;10.60;;;6.57;;
5587;SDS011;2816;49.778;9.986;2023-11-21T10:56:53;10.00;;;6.37;;
5587;SDS011;2816;49.778;9.986;2023-11-21T10:59:23;10.33;;;5.90;;
5587;SDS011;2816;49.778;9.986;2023-11-21T11:01:54;9.80;;;5.73;;
5587;SDS011;2816;49.778;9.986;2023-11-21T11:04:26;12.97;;;6.60;;
5587;SDS011;2816;49.778;9.986;2023-11-21T11:06:54;19.30;;;9.73;;
5587;SDS011;2816;49.778;9.986;2023-11-21T11:09:23;9.57;;;6.37;;
5587;SDS011;2816;49.778;9.986;2023-11-21T11:11:52;11.83;;;7.40;;
5587;SDS011;2816;49.778;9.986;2023-11-21T11:14:19;13.03;;;6.53;;
5587;SDS011;2816;49.778;9.986;2023-11-21T11:16:50;11.57;;;7.50;;
5587;SDS011;2816;49.778;9.986;2023-11-21T11:19:19;10.33;;;6.10;;
5587;SDS011;2816;49.778;9.986;2023-11-21T11:22:03;9.60;;;6.60;;
5587;SDS011;2816;49.778;9.986;2023-11-21T11:24:44;12.83;;;6.17;;
5587;SDS011;2816;49.778;9.986;2023-11-21T11:27:26;8.53;;;5.50;;
5587;SDS011;2816;49.778;9.986;2023-11-21T11:30:04;10.13;;;6.20;;
5587;SDS011;2816;49.778;9.986;2023-11-21T11:32:40;8.40;;;5.90;;
5587;SDS011;2816;49.778;9.986;2023-11-21T11:35:17;10.87;;;5.60;;
5587;SDS011;2816;49.778;9.986;2023-11-21T11:37:50;8.53;;;5.27;;
5587;SDS011;2816;49.778;9.986;2023-11-21T11:40:19;7.90;;;5.03;;
5587;SDS011;2816;49.778;9.986;2023-11-21T11:42:56;8.10;;;5.00;;
5587;SDS011;2816;49.778;9.986;2023-11-21T11:45:24;11.57;;;4.43;;
5587;SDS011;2816;49.778;9.986;2023-11-21T11:47:58;9.70;;;5.53;;
5587;SDS011;2816;49.778;9.986;2023-11-21T11:50:27;7.77;;;4.10;;
5587;SDS011;2816;49.778;9.986;2023-11-21T11:52:54;9.33;;;4.20;;
5587;SDS011;2816;49.778;9.986;2023-11-21T11:55:39;6.70;;;4.47;;
5587;SDS011;2816;49.778;9.986;2023-11-21T11:58:06;6.03;;;4.43;;
5587;SDS011;2816;49.778;9.986;2023-11-21T12:00:33;6.27;;;4.13;;
5587;SDS011;2816;49.778;9.986;2023-11-21T12:03:03;6.87;;;4.30;;
5587;SDS011;2816;49.778;9.986;2023-11-21T12:05:32;11.43;;;5.03;;
5587;SDS011;2816;49.778;9.986;2023-11-21T12:08:04;9.73;;;4.33;;
5587;SDS011;2816;49.778;9.986;2023-11-21T12:10:33;7.23;;;4.30;;
5587;SDS011;2816;49.778;9.986;2023-11-21T12:13:05;6.03;;;4.10;;
5587;SDS011;2816;49.778;9.986;2023-11-21T12:15:33;4.90;;;4.10;;
5587;SDS011;2816;49.778;9.986;2023-11-21T12:18:00;6.60;;;3.80;;
5587;SDS011;2816;49.778;9.986;2023-11-21T12:20:28;9.80;;;4.00;;
5587;SDS011;2816;49.778;9.986;2023-11-21T12:22:58;11.83;;;4.20;;
5587;SDS011;2816;49.778;9.986;2023-11-21T12:25:26;13.87;;;5.37;;
5587;SDS011;2816;49.778;9.986;2023-11-21T12:27:55;16.30;;;6.87;;
5587;SDS011;2816;49.778;9.986;2023-11-21T12:30:25;9.37;;;5.20;;
5587;SDS011;2816;49.778;9.986;2023-11-21T12:32:56;7.00;;;4.50;;
5587;SDS011;2816;49.778;9.986;2023-11-21T12:35:25;10.40;;;5.53;;
5587;SDS011;2816;49.778;9.986;2023-11-21T12:37:54;7.27;;;4.40;;
5587;SDS011;2816;49.778;9.986;2023-11-21T12:40:22;12.87;;;4.47;;
5587;SDS011;2816;49.778;9.986;2023-11-21T12:42:51;7.07;;;4.50;;
5587;SDS011;2816;49.778;9.986;2023-11-21T12:45:20;5.93;;;3.77;;
5587;SDS011;2816;49.778;9.986;2023-11-21T12:47:52;16.63;;;7.03;;
5587;SDS011;2816;49.778;9.986;2023-11-21T12:50:22;14.10;;;4.40;;
5587;SDS011;2816;49.778;9.986;2023-11-21T12:52:53;19.40;;;6.37;;
5587;SDS011;2816;49.778;9.986;2023-11-21T12:55:24;4.83;;;3.50;;
5587;SDS011;2816;49.778;9.986;2023-11-21T12:57:51;3.57;;;2.43;;
5587;SDS011;2816;49.778;9.986;2023-11-21T13:00:26;4.87;;;2.30;;
5587;SDS011;2816;49.778;9.986;2023-11-21T13:02:58;3.57;;;2.10;;
5587;SDS011;2816;49.778;9.986;2023-11-21T13:05:29;7.73;;;2.73;;
5587;SDS011;2816;49.778;9.986;2023-11-21T13:07:57;6.17;;;2.43;;
5587;SDS011;2816;49.778;9.986;2023-11-21T13:10:28;5.67;;;2.20;;
5587;SDS011;2816;49.778;9.986;2023-11-21T13:12:56;6.77;;;2.73;;
5587;SDS011;2816;49.778;9.986;2023-11-21T13:15:25;6.10;;;2.10;;
5587;SDS011;2816;49.778;9.986;2023-11-21T13:17:52;4.27;;;2.13;;
5587;SDS011;2816;49.778;9.986;2023-11-21T13:20:22;4.70;;;2.60;;
5587;SDS011;2816;49.778;9.986;2023-11-21T13:22:51;23.27;;;4.50;;
5587;SDS011;2816;49.778;9.986;2023-11-21T13:25:22;4.67;;;2.03;;
5587;SDS011;2816;49.778;9.986;2023-11-21T13:27:52;5.00;;;2.70;;
5587;SDS011;2816;49.778;9.986;2023-11-21T13:30:19;10.57;;;2.40;;
5587;SDS011;2816;49.778;9.986;2023-11-21T13:32:51;4.90;;;2.10;;
5587;SDS011;2816;49.778;9.986;2023-11-21T13:35:23;9.40;;;2.70;;
5587;SDS011;2816;49.778;9.986;2023-11-21T13:38:02;3.87;;;2.23;;
5587;SDS011;2816;49.778;9.986;2023-11-21T13:40:31;9.13;;;2.57;;
5587;SDS011;2816;49.778;9.986;2023-11-21T13:42:59;4.27;;;2.40;;
5587;SDS011;2816;49.778;9.986;2023-11-21T13:45:30;11.20;;;2.80;;
5587;SDS011;2816;49.778;9.986;2023-11-21T13:47:56;6.67;;;2.53;;
5587;SDS011;2816;49.778;9.986;2023-11-21T13:50:25;6.77;;;2.80;;
5587;SDS011;2816;49.778;9.986;2023-11-21T13:52:57;4.43;;;2.30;;
5587;SDS011;2816;49.778;9.986;2023-11-21T13:55:28;6.70;;;2.30;;
5587;SDS011;2816;49.778;9.986;2023-11-21T13:57:55;7.70;;;2.10;;
5587;SDS011;2816;49.778;9.986;2023-11-21T14:00:22;3.30;;;2.23;;
5587;SDS011;2816;49.778;9.986;2023-11-21T14:03:06;10.10;;;3.00;;
5587;SDS011;2816;49.778;9.986;2023-11-21T14:05:42;10.37;;;2.60;;
5587;SDS011;2816;49.778;9.986;2023-11-21T14:08:11;2.83;;;2.40;;
5587;SDS011;2816;49.778;9.986;2023-11-21T14:10:41;8.50;;;2.27;;
5587;SDS011;2816;49.778;9.986;2023-11-21T14:13:11;5.77;;;2.40;;
5587;SDS011;2816;49.778;9.986;2023-11-21T14:15:39;4.90;;;1.80;;
5587;SDS011;2816;49.778;9.986;2023-11-21T14:18:10;2.43;;;1.67;;
5587;SDS011;2816;49.778;9.986;2023-11-21T14:20:43;2.40;;;2.07;;
5587;SDS011;2816;49.778;9.986;2023-11-21T14:23:10;3.20;;;1.70;;
5587;SDS011;2816;49.778;9.986;2023-11-21T14:25:37;2.00;;;1.43;;
5587;SDS011;2816;49.778;9.986;2023-11-21T14:28:07;1.63;;;1.20;;
5587;SDS011;2816;49.778;9.986;2023-11-21T14:30:36;2.60;;;1.50;;
5587;SDS011;2816;49.778;9.986;2023-11-21T14:33:04;1.83;;;1.60;;
5587;SDS011;2816;49.778;9.986;2023-11-21T14:35:33;3.67;;;1.70;;
5587;SDS011;2816;49.778;9.986;2023-11-21T14:38:01;3.53;;;1.60;;
5587;SDS011;2816;49.778;9.986;2023-11-21T14:40:29;5.07;;;1.90;;
5587;SDS011;2816;49.778;9.986;2023-11-21T14:42:58;4.03;;;1.97;;
5587;SDS011;2816;49.778;9.986;2023-11-21T14:45:26;3.83;;;2.00;;
5587;SDS011;2816;49.778;9.986;2023-11-21T14:47:54;2.23;;;1.53;;
5587;SDS011;2816;49.778;9.986;2023-11-21T14:50:30;5.57;;;2.50;;
5587;SDS011;2816;49.778;9.986;2023-11-21T14:53:13;3.10;;;2.10;;
5587;SDS011;2816;49.778;9.986;2023-11-21T14:55:40;14.57;;;2.67;;
5587;SDS011;2816;49.778;9.986;2023-11-21T14:58:20;5.27;;;1.83;;
5587;SDS011;2816;49.778;9.986;2023-11-21T15:00:52;3.33;;;1.90;;
5587;SDS011;2816;49.778;9.986;2023-11-21T15:03:23;4.57;;;2.70;;
5587;SDS011;2816;49.778;9.986;2023-11-21T15:06:08;3.60;;;2.60;;
5587;SDS011;2816;49.778;9.986;2023-11-21T15:08:53;3.50;;;2.90;;
5587;SDS011;2816;49.778;9.986;2023-11-21T15:11:43;7.77;;;3.83;;
5587;SDS011;2816;49.778;9.986;2023-11-21T15:14:09;11.33;;;4.63;;
5587;SDS011;2816;49.778;9.986;2023-11-21T15:16:40;7.50;;;3.80;;
5587;SDS011;2816;49.778;9.986;2023-11-21T15:19:11;8.40;;;3.53;;